createdAt,value
2022-11-23T00:01:56.598Z,22.17
2022-11-23T00:04:26.559Z,21.70
2022-11-23T00:06:55.128Z,22.97
2022-11-23T00:09:25.096Z,21.40
2022-11-23T00:11:53.811Z,20.73
2022-11-23T00:14:23.085Z,22.47
2022-11-23T00:16:53.748Z,20.27
2022-11-23T00:19:22.780Z,23.47
2022-11-23T00:21:51.389Z,22.33
2022-11-23T00:24:19.303Z,21.23
2022-11-23T00:26:48.046Z,21.40
2022-11-23T00:29:17.608Z,21.43
2022-11-23T00:31:47.491Z,21.43
2022-11-23T00:34:17.722Z,21.23
2022-11-23T00:36:47.388Z,19.93
2022-11-23T00:39:16.437Z,21.23
2022-11-23T00:41:45.255Z,21.47
2022-11-23T00:44:13.925Z,21.83
2022-11-23T00:46:43.625Z,21.33
2022-11-23T00:49:12.036Z,23.53
2022-11-23T00:51:43.039Z,22.50
2022-11-23T00:54:11.934Z,21.00
2022-11-23T00:56:40.870Z,23.20
2022-11-23T00:59:07.718Z,22.57
2022-11-23T01:01:38.573Z,21.43
2022-11-23T01:04:09.585Z,22.40
2022-11-23T01:06:40.707Z,21.23
2022-11-23T01:09:14.044Z,21.33
2022-11-23T01:11:41.172Z,23.00
2022-11-23T01:14:11.994Z,21.73
2022-11-23T01:16:42.632Z,21.63
2022-11-23T01:19:16.997Z,21.10
2022-11-23T01:21:51.346Z,22.47
2022-11-23T01:24:23.435Z,22.33
2022-11-23T01:26:57.004Z,20.77
2022-11-23T01:29:27.870Z,21.07
2022-11-23T01:31:57.053Z,22.67
2022-11-23T01:34:25.329Z,23.40
2022-11-23T01:36:56.451Z,20.27
2022-11-23T01:39:26.502Z,22.20
2022-11-23T01:41:53.357Z,20.57
2022-11-23T01:44:29.377Z,22.60
2022-11-23T01:47:01.473Z,19.77
2022-11-23T01:49:37.038Z,22.50
2022-11-23T01:52:27.228Z,20.63
2022-11-23T01:55:20.955Z,21.23
2022-11-23T01:57:49.523Z,21.27
2022-11-23T02:00:18.603Z,20.50
2022-11-23T02:02:59.570Z,20.83
2022-11-23T02:05:39.381Z,20.13
2022-11-23T02:08:10.110Z,20.60
2022-11-23T02:10:39.400Z,20.57
2022-11-23T02:13:10.131Z,20.93
2022-11-23T02:15:39.081Z,19.93
2022-11-23T02:18:20.096Z,21.57
2022-11-23T02:20:48.662Z,20.27
2022-11-23T02:23:16.554Z,21.03
2022-11-23T02:25:44.880Z,20.77
2022-11-23T02:28:18.838Z,19.47
2022-11-23T02:30:50.251Z,21.53
2022-11-23T02:33:20.121Z,21.83
2022-11-23T02:35:50.972Z,21.47
2022-11-23T02:38:23.752Z,20.70
2022-11-23T02:40:53.863Z,21.10
2022-11-23T02:43:20.689Z,19.53
2022-11-23T02:45:51.752Z,19.50
2022-11-23T02:48:19.953Z,21.27
2022-11-23T02:50:47.668Z,18.97
2022-11-23T02:53:16.664Z,19.17
2022-11-23T02:55:45.089Z,22.07
2022-11-23T02:58:16.608Z,20.43
2022-11-23T03:00:44.488Z,19.83
2022-11-23T03:03:11.325Z,20.60
2022-11-23T03:05:39.120Z,19.93
2022-11-23T03:08:07.627Z,19.43
2022-11-23T03:10:36.000Z,20.50
2022-11-23T03:13:04.798Z,20.13
2022-11-23T03:15:33.526Z,19.23
2022-11-23T03:18:01.576Z,19.53
2022-11-23T03:20:28.536Z,19.27
2022-11-23T03:22:56.550Z,17.73
2022-11-23T03:25:24.959Z,20.70
2022-11-23T03:27:52.361Z,20.00
2022-11-23T03:30:21.067Z,18.70
2022-11-23T03:32:50.455Z,20.00
2022-11-23T03:35:18.674Z,21.13
2022-11-23T03:37:46.377Z,19.10
2022-11-23T03:40:15.972Z,20.87
2022-11-23T03:42:44.197Z,19.27
2022-11-23T03:45:12.475Z,18.67
2022-11-23T03:47:40.134Z,19.90
2022-11-23T03:50:09.013Z,19.50
2022-11-23T03:52:35.947Z,19.73
2022-11-23T03:55:03.758Z,18.27
2022-11-23T03:57:31.185Z,18.87
2022-11-23T03:59:59.144Z,18.60
2022-11-23T04:02:28.000Z,19.50
2022-11-23T04:04:56.221Z,19.77
2022-11-23T04:07:23.981Z,18.30
2022-11-23T04:09:51.462Z,19.63
2022-11-23T04:12:19.345Z,18.30
2022-11-23T04:14:46.911Z,18.10
2022-11-23T04:17:15.241Z,19.87
2022-11-23T04:19:42.338Z,19.67
2022-11-23T04:22:11.434Z,18.87
2022-11-23T04:24:39.343Z,19.53
2022-11-23T04:27:06.882Z,19.83
2022-11-23T04:29:34.833Z,18.73
2022-11-23T04:32:02.211Z,19.27
2022-11-23T04:34:29.717Z,19.20
2022-11-23T04:36:58.017Z,18.43
2022-11-23T04:39:25.554Z,19.33
2022-11-23T04:41:53.735Z,19.70
2022-11-23T04:44:24.525Z,21.13
2022-11-23T04:46:52.173Z,20.03
2022-11-23T04:49:21.204Z,19.97
2022-11-23T04:51:48.427Z,19.97
2022-11-23T04:54:15.885Z,18.43
2022-11-23T04:56:43.534Z,18.90
2022-11-23T04:59:10.713Z,18.80
2022-11-23T05:01:37.737Z,19.67
2022-11-23T05:04:06.232Z,18.93
2022-11-23T05:06:33.177Z,18.80
2022-11-23T05:09:01.499Z,20.43
2022-11-23T05:11:29.342Z,20.03
2022-11-23T05:13:57.377Z,18.13
2022-11-23T05:16:25.101Z,18.53
2022-11-23T05:18:53.908Z,19.50
2022-11-23T05:21:24.408Z,18.40
2022-11-23T05:23:52.440Z,19.03
2022-11-23T05:26:20.757Z,18.77
2022-11-23T05:28:59.973Z,18.73
2022-11-23T05:34:50.126Z,17.80
2022-11-23T05:40:12.907Z,19.37
2022-11-23T05:42:46.583Z,17.77
2022-11-23T05:45:19.192Z,18.00
2022-11-23T05:47:59.181Z,18.27
2022-11-23T05:50:31.925Z,16.90
2022-11-23T05:53:02.063Z,17.90
2022-11-23T05:55:43.703Z,19.47
2022-11-23T05:58:33.539Z,18.17
2022-11-23T06:01:13.977Z,18.00
2022-11-23T06:03:44.643Z,20.27
2022-11-23T06:06:14.239Z,18.27
2022-11-23T06:08:48.994Z,18.37
2022-11-23T06:11:17.102Z,18.87
2022-11-23T06:13:48.026Z,18.17
2022-11-23T06:16:22.575Z,17.73
2022-11-23T06:18:54.438Z,18.33
2022-11-23T06:21:25.115Z,17.93
2022-11-23T06:23:59.547Z,17.17
2022-11-23T06:26:29.436Z,17.17
2022-11-23T06:29:02.875Z,17.77
2022-11-23T06:31:31.764Z,17.83
2022-11-23T06:34:01.683Z,16.47
2022-11-23T06:36:28.833Z,18.47
2022-11-23T06:38:56.555Z,16.07
2022-11-23T06:41:28.180Z,16.00
2022-11-23T06:43:59.211Z,17.57
2022-11-23T06:46:26.272Z,17.80
2022-11-23T06:48:53.143Z,17.20
2022-11-23T06:51:20.047Z,17.00
2022-11-23T06:53:48.058Z,15.63
2022-11-23T06:56:16.600Z,17.43
2022-11-23T06:58:43.729Z,15.47
2022-11-23T07:01:11.637Z,15.23
2022-11-23T07:03:38.747Z,16.33
2022-11-23T07:06:10.325Z,17.23
2022-11-23T07:08:43.373Z,15.27
2022-11-23T07:11:12.016Z,16.00
2022-11-23T07:13:40.092Z,15.50
2022-11-23T07:16:08.469Z,15.83
2022-11-23T07:18:36.176Z,16.73
2022-11-23T07:21:03.717Z,16.23
2022-11-23T07:23:31.211Z,16.93
2022-11-23T07:26:00.831Z,17.37
2022-11-23T07:28:28.940Z,16.70
2022-11-23T07:30:57.322Z,16.03
2022-11-23T07:33:25.296Z,17.57
2022-11-23T07:35:53.257Z,16.77
2022-11-23T07:38:21.229Z,15.87
2022-11-23T07:40:50.958Z,16.40
2022-11-23T07:43:18.126Z,18.33
2022-11-23T07:45:45.296Z,16.23
2022-11-23T07:48:14.556Z,16.77
2022-11-23T07:50:42.713Z,16.63
2022-11-23T07:53:11.425Z,17.90
2022-11-23T07:55:39.410Z,17.07
2022-11-23T07:58:07.356Z,18.43
2022-11-23T08:00:34.580Z,18.67
2022-11-23T08:03:26.788Z,19.50
2022-11-23T08:05:50.684Z,17.63
2022-11-23T08:08:19.630Z,16.27
2022-11-23T08:10:53.383Z,17.40
2022-11-23T08:13:23.489Z,18.07
2022-11-23T08:15:55.224Z,17.80
2022-11-23T08:18:28.399Z,16.40
2022-11-23T08:21:05.980Z,15.87
2022-11-23T08:23:35.849Z,16.10
2022-11-23T08:26:12.023Z,16.03
2022-11-23T08:28:42.941Z,16.20
2022-11-23T08:31:16.346Z,15.93
2022-11-23T08:33:47.601Z,15.13
2022-11-23T08:39:10.048Z,14.90
2022-11-23T08:41:41.780Z,15.07
2022-11-23T08:44:14.400Z,14.03
2022-11-23T08:46:45.194Z,14.03
2022-11-23T08:49:14.219Z,14.70
2022-11-23T08:51:49.749Z,14.67
2022-11-23T08:54:18.984Z,14.17
2022-11-23T08:56:48.219Z,13.40
2022-11-23T08:59:21.331Z,14.70
2022-11-23T09:01:54.227Z,13.20
2022-11-23T09:04:22.735Z,14.17
2022-11-23T09:06:51.602Z,14.07
2022-11-23T09:09:27.153Z,13.00
2022-11-23T09:11:56.806Z,13.87
2022-11-23T09:14:28.583Z,13.63
2022-11-23T09:16:59.496Z,14.23
2022-11-23T09:19:28.992Z,14.23
2022-11-23T09:22:00.294Z,13.57
2022-11-23T09:24:31.724Z,14.37
2022-11-23T09:27:01.794Z,14.20
2022-11-23T09:29:36.355Z,13.07
2022-11-23T09:32:06.736Z,13.53
2022-11-23T09:34:35.700Z,12.57
2022-11-23T09:37:07.057Z,13.67
2022-11-23T09:39:35.863Z,13.73
2022-11-23T09:42:47.545Z,12.70
2022-11-23T09:45:28.237Z,12.97
2022-11-23T09:48:24.629Z,11.60
2022-11-23T09:51:27.852Z,12.40
2022-11-23T09:54:06.896Z,13.70
2022-11-23T09:59:54.251Z,12.07
2022-11-23T10:02:29.674Z,13.07
2022-11-23T10:05:02.280Z,13.17
2022-11-23T10:07:56.848Z,16.33
2022-11-23T10:10:46.184Z,12.83
2022-11-23T10:16:26.685Z,13.37
2022-11-23T10:19:11.698Z,13.33
2022-11-23T10:21:46.365Z,12.43
2022-11-23T10:24:35.713Z,12.57
2022-11-23T10:27:07.082Z,12.30
2022-11-23T10:29:39.803Z,12.73
2022-11-23T10:32:23.436Z,11.17
2022-11-23T10:35:14.445Z,11.87
2022-11-23T10:37:45.284Z,12.10
2022-11-23T10:40:25.785Z,11.67
2022-11-23T10:43:05.239Z,11.40
2022-11-23T10:45:38.876Z,11.93
2022-11-23T10:48:08.166Z,10.90
2022-11-23T10:50:47.157Z,12.73
2022-11-23T10:53:21.009Z,12.83
2022-11-23T10:55:58.107Z,11.40
2022-11-23T10:58:31.991Z,11.03
2022-11-23T11:01:07.050Z,10.27
2022-11-23T11:03:35.855Z,9.80
2022-11-23T11:06:09.560Z,10.50
2022-11-23T11:08:50.256Z,10.57
2022-11-23T11:11:31.401Z,9.90
2022-11-23T11:14:31.371Z,9.53
2022-11-23T11:17:09.194Z,10.03
2022-11-23T11:19:38.609Z,9.30
2022-11-23T11:22:37.568Z,9.20
2022-11-23T11:25:11.467Z,8.97
2022-11-23T11:27:41.306Z,8.97
2022-11-23T11:30:21.510Z,9.43
2022-11-23T11:33:17.400Z,9.10
2022-11-23T11:35:50.023Z,8.57
2022-11-23T11:38:31.664Z,8.80
2022-11-23T11:41:04.357Z,7.90
2022-11-23T11:44:08.265Z,7.90
2022-11-23T11:46:41.042Z,8.00
2022-11-23T11:49:26.349Z,9.20
2022-11-23T11:52:04.427Z,8.67
2022-11-23T11:54:52.644Z,8.17
2022-11-23T11:57:31.930Z,7.40
2022-11-23T12:00:04.767Z,8.33
2022-11-23T12:02:57.479Z,8.37
2022-11-23T12:05:52.654Z,8.03
2022-11-23T12:09:00.868Z,8.53
2022-11-23T12:11:36.971Z,8.10
2022-11-23T12:14:09.724Z,8.53
2022-11-23T12:17:16.841Z,8.13
2022-11-23T12:20:07.795Z,8.37
2022-11-23T12:22:49.204Z,9.03
2022-11-23T12:25:36.030Z,8.07
2022-11-23T12:28:35.847Z,8.00
2022-11-23T12:31:27.870Z,7.87
2022-11-23T12:34:06.844Z,8.70
2022-11-23T12:37:24.876Z,8.30
2022-11-23T12:40:23.418Z,8.67
2022-11-23T12:43:16.641Z,8.10
2022-11-23T12:46:17.124Z,9.10
2022-11-23T12:49:02.814Z,9.37
2022-11-23T12:51:58.124Z,9.57
2022-11-23T12:55:19.640Z,10.07
2022-11-23T12:58:14.149Z,9.00
2022-11-23T13:00:59.558Z,7.93
2022-11-23T13:03:47.511Z,9.33
2022-11-23T13:07:28.026Z,8.83
2022-11-23T13:10:10.644Z,8.53
2022-11-23T13:13:01.917Z,7.90
2022-11-23T13:15:34.001Z,8.07
2022-11-23T13:18:46.045Z,8.90
2022-11-23T13:21:27.376Z,8.60
2022-11-23T13:23:59.802Z,8.63
2022-11-23T13:26:47.962Z,9.20
2022-11-23T13:29:51.900Z,9.93
2022-11-23T13:32:53.798Z,8.90
2022-11-23T13:35:30.063Z,10.63
2022-11-23T13:38:16.423Z,9.23
2022-11-23T13:40:50.633Z,10.83
2022-11-23T13:43:33.617Z,9.77
2022-11-23T13:46:23.733Z,9.03
2022-11-23T13:49:00.440Z,9.13
2022-11-23T13:51:34.096Z,8.53
2022-11-23T13:54:33.441Z,7.60
2022-11-23T13:57:11.276Z,8.33
2022-11-23T13:59:39.938Z,6.97
2022-11-23T14:02:07.178Z,7.40
2022-11-23T14:04:41.992Z,7.57
2022-11-23T14:07:10.379Z,7.23
2022-11-23T14:10:20.275Z,7.93
2022-11-23T14:13:09.183Z,8.80
2022-11-23T14:15:43.185Z,7.70
2022-11-23T14:18:38.417Z,9.13
2022-11-23T14:21:52.881Z,9.70
2022-11-23T14:24:39.394Z,7.47
2022-11-23T14:27:48.706Z,9.17
2022-11-23T14:30:33.832Z,8.33
2022-11-23T14:33:41.385Z,9.63
2022-11-23T14:36:18.554Z,8.00
2022-11-23T14:39:19.128Z,8.50
2022-11-23T14:41:53.659Z,7.67
2022-11-23T14:44:26.422Z,8.07
2022-11-23T14:47:31.795Z,8.10
2022-11-23T14:50:02.128Z,8.70
2022-11-23T14:52:37.241Z,8.17
2022-11-23T14:55:09.388Z,7.73
2022-11-23T14:57:49.298Z,9.07
2022-11-23T15:00:38.182Z,7.73
2022-11-23T15:03:48.822Z,7.60
2022-11-23T15:06:16.089Z,8.23
2022-11-23T15:08:50.759Z,8.47
2022-11-23T15:11:28.420Z,8.80
2022-11-23T15:14:03.824Z,9.13
2022-11-23T15:16:43.297Z,8.60
2022-11-23T15:19:30.936Z,8.17
2022-11-23T15:22:03.956Z,8.67
2022-11-23T15:24:31.948Z,8.03
2022-11-23T15:27:11.072Z,9.33
2022-11-23T15:29:41.452Z,9.87
2022-11-23T15:32:42.342Z,8.77
2022-11-23T15:35:14.352Z,8.43
2022-11-23T15:37:47.064Z,8.70
2022-11-23T15:40:20.264Z,8.90
2022-11-23T15:42:53.400Z,9.27
2022-11-23T15:45:44.547Z,8.97
2022-11-23T15:48:15.536Z,8.13
2022-11-23T15:50:52.693Z,8.83
2022-11-23T15:53:26.921Z,8.23
2022-11-23T15:55:59.712Z,8.37
2022-11-23T15:58:28.883Z,8.80
2022-11-23T16:01:17.691Z,8.27
2022-11-23T16:04:03.607Z,8.73
2022-11-23T16:06:42.719Z,8.57
2022-11-23T16:09:54.234Z,7.67
2022-11-23T16:12:21.564Z,8.17
2022-11-23T16:14:53.202Z,8.50
2022-11-23T16:17:30.103Z,8.73
2022-11-23T16:20:00.742Z,9.30
2022-11-23T16:22:42.219Z,9.67
2022-11-23T16:25:32.098Z,10.40
2022-11-23T16:28:00.195Z,8.43
2022-11-23T16:30:42.806Z,9.17
2022-11-23T16:33:20.476Z,9.43
2022-11-23T16:35:53.721Z,8.87
2022-11-23T16:38:29.464Z,8.90
2022-11-23T16:40:59.206Z,9.90
2022-11-23T16:43:29.543Z,8.70
2022-11-23T16:46:05.421Z,8.07
2022-11-23T16:48:47.403Z,8.80
2022-11-23T16:51:25.194Z,8.40
2022-11-23T16:54:13.025Z,8.60
2022-11-23T16:56:43.420Z,10.20
2022-11-23T16:59:24.358Z,9.87
2022-11-23T17:01:56.899Z,9.07
2022-11-23T17:04:26.409Z,10.43
2022-11-23T17:06:55.421Z,9.20
2022-11-23T17:09:24.100Z,9.43
2022-11-23T17:11:57.463Z,11.23
2022-11-23T17:14:29.688Z,9.00
2022-11-23T17:17:01.862Z,8.37
2022-11-23T17:19:40.228Z,8.60
2022-11-23T17:22:10.145Z,7.80
2022-11-23T17:24:38.815Z,7.83
2022-11-23T17:27:07.411Z,8.13
2022-11-23T17:29:41.514Z,8.17
2022-11-23T17:32:14.293Z,7.67
2022-11-23T17:34:44.632Z,9.37
2022-11-23T17:37:26.113Z,9.57
2022-11-23T17:40:01.534Z,8.17
2022-11-23T17:42:30.088Z,8.30
2022-11-23T17:44:58.888Z,8.83
2022-11-23T17:47:29.631Z,8.17
2022-11-23T17:49:58.624Z,8.50
2022-11-23T17:52:32.305Z,8.47
2022-11-23T17:55:01.413Z,10.03
2022-11-23T17:57:30.356Z,9.17
2022-11-23T18:00:03.853Z,8.10
2022-11-23T18:02:35.512Z,8.47
2022-11-23T18:05:03.604Z,8.53
2022-11-23T18:07:31.376Z,9.30
2022-11-23T18:09:59.886Z,8.80
2022-11-23T18:12:29.861Z,9.53
2022-11-23T18:14:59.027Z,9.23
2022-11-23T18:17:27.915Z,9.27
2022-11-23T18:19:54.947Z,10.27
2022-11-23T18:22:24.495Z,12.83
2022-11-23T18:24:54.255Z,10.70
2022-11-23T18:27:23.533Z,10.70
2022-11-23T18:29:51.165Z,9.80
2022-11-23T18:32:19.563Z,11.13
2022-11-23T18:34:49.075Z,9.90
2022-11-23T18:37:19.836Z,11.03
2022-11-23T18:39:48.287Z,10.90
2022-11-23T18:42:17.029Z,10.87
2022-11-23T18:44:49.742Z,10.00
2022-11-23T18:47:19.327Z,9.33
2022-11-23T18:49:48.022Z,9.90
2022-11-23T18:52:15.431Z,11.20
2022-11-23T18:54:50.775Z,10.33
2022-11-23T18:57:24.262Z,9.80
2022-11-23T18:59:58.304Z,10.07
2022-11-23T19:02:29.277Z,10.93
2022-11-23T19:04:58.317Z,9.70
2022-11-23T19:07:27.449Z,10.57
2022-11-23T19:09:56.563Z,9.90
2022-11-23T19:12:27.041Z,10.07
2022-11-23T19:17:54.349Z,9.97
2022-11-23T19:20:29.147Z,10.10
2022-11-23T19:22:58.035Z,9.37
2022-11-23T19:25:37.465Z,9.47
2022-11-23T19:28:06.743Z,9.77
2022-11-23T19:30:39.991Z,9.50
2022-11-23T19:33:08.714Z,10.33
2022-11-23T19:35:43.503Z,8.50
2022-11-23T19:38:12.080Z,9.60
2022-11-23T19:43:38.880Z,22.77
2022-11-23T19:46:10.550Z,16.83
2022-11-23T19:48:39.268Z,9.57
2022-11-23T19:51:12.999Z,9.73
2022-11-23T19:53:41.993Z,9.07
2022-11-23T19:56:19.525Z,10.40
2022-11-23T19:58:50.393Z,9.63
2022-11-23T20:01:20.375Z,10.03
2022-11-23T20:03:53.569Z,11.93
2022-11-23T20:06:28.811Z,12.70
2022-11-23T20:08:58.099Z,13.47
2022-11-23T20:11:27.628Z,14.83
2022-11-23T20:13:55.612Z,17.70
2022-11-23T20:16:23.834Z,12.73
2022-11-23T20:18:57.243Z,15.90
2022-11-23T20:21:24.627Z,14.10
2022-11-23T20:26:51.650Z,18.47
2022-11-23T20:29:18.898Z,26.80
2022-11-23T20:31:46.296Z,16.60
2022-11-23T20:34:18.073Z,13.60
2022-11-23T20:36:46.934Z,11.57
2022-11-23T20:39:16.139Z,9.90
2022-11-23T20:41:43.940Z,10.97
2022-11-23T20:44:15.081Z,9.43
2022-11-23T20:47:03.474Z,8.90
2022-11-23T20:49:31.498Z,9.57
2022-11-23T20:51:59.961Z,9.40
2022-11-23T20:54:27.231Z,8.57
2022-11-23T20:56:54.202Z,9.13
2022-11-23T20:59:21.167Z,9.80
2022-11-23T21:01:49.496Z,9.10
2022-11-23T21:04:16.469Z,8.57
2022-11-23T21:06:43.706Z,9.30
2022-11-23T21:09:11.371Z,10.13
2022-11-23T21:11:57.364Z,9.47
2022-11-23T21:14:27.814Z,9.17
2022-11-23T21:16:58.591Z,8.47
2022-11-23T21:19:30.297Z,10.93
2022-11-23T21:21:58.033Z,9.80
2022-11-23T21:24:25.882Z,11.17
2022-11-23T21:26:53.473Z,17.33
2022-11-23T21:29:20.622Z,12.13
2022-11-23T21:31:49.119Z,9.40
2022-11-23T21:34:20.092Z,9.17
2022-11-23T21:36:47.884Z,8.93
2022-11-23T21:39:15.795Z,9.40
2022-11-23T21:41:43.485Z,8.50
2022-11-23T21:44:11.194Z,9.10
2022-11-23T21:46:39.638Z,10.33
2022-11-23T21:49:07.485Z,9.53
2022-11-23T21:51:35.760Z,8.73
2022-11-23T21:54:05.593Z,8.43
2022-11-23T21:56:33.155Z,8.33
2022-11-23T21:59:00.407Z,9.30
2022-11-23T22:01:30.104Z,9.20
2022-11-23T22:04:03.365Z,9.57
2022-11-23T22:06:31.213Z,8.43
2022-11-23T22:09:00.191Z,8.67
2022-11-23T22:11:29.901Z,9.20
2022-11-23T22:14:01.122Z,8.37
2022-11-23T22:16:56.858Z,9.60
2022-11-23T22:19:24.632Z,7.87
2022-11-23T22:21:52.687Z,8.07
2022-11-23T22:24:22.474Z,8.30
2022-11-23T22:26:50.428Z,8.50
2022-11-23T22:29:17.992Z,9.20
2022-11-23T22:31:45.711Z,8.97
2022-11-23T22:34:14.322Z,8.50
2022-11-23T22:36:42.179Z,8.13
2022-11-23T22:39:10.102Z,9.30
2022-11-23T22:41:38.496Z,8.70
2022-11-23T22:44:08.260Z,8.73
2022-11-23T22:46:36.950Z,8.33
2022-11-23T22:49:04.932Z,8.90
2022-11-23T22:51:32.652Z,8.70
2022-11-23T22:54:01.249Z,8.70
2022-11-23T22:56:30.680Z,8.53
2022-11-23T22:58:58.743Z,9.40
2022-11-23T23:01:28.739Z,8.97
2022-11-23T23:03:57.371Z,9.17
2022-11-23T23:06:27.085Z,9.27
2022-11-23T23:08:57.170Z,9.70
2022-11-23T23:11:26.254Z,8.93
2022-11-23T23:13:53.868Z,8.73
2022-11-23T23:16:21.784Z,8.90
2022-11-23T23:18:50.252Z,8.60
2022-11-23T23:21:20.112Z,8.00
2022-11-23T23:23:49.716Z,9.07
2022-11-23T23:26:19.017Z,9.47
2022-11-23T23:28:47.237Z,8.57
2022-11-23T23:31:16.979Z,8.83
2022-11-23T23:33:45.540Z,8.83
2022-11-23T23:36:16.078Z,8.33
2022-11-23T23:38:43.710Z,8.20
2022-11-23T23:41:12.621Z,8.47
2022-11-23T23:43:40.985Z,9.30
2022-11-23T23:46:10.483Z,8.33
2022-11-23T23:48:39.561Z,7.80
2022-11-23T23:51:11.669Z,8.10
2022-11-23T23:53:40.041Z,8.20
2022-11-23T23:56:16.397Z,7.47
2022-11-23T23:58:44.131Z,7.50
